Time;durP1;ratioP1;P1;durP2;ratioP2;P2;SDS_P1;SDS_P2;PMS_P1;PMS_P2;Temp;Humidity;BMP_temperature;BMP_pressure;BME280_temperature;BME280_humidity;BME280_pressure;Samples;Min_cycle;Max_cycle;Signal;HPM_P1;HPM_P2
2023/09/21 00:04:01;;;;;;;4.05;2.90;;;;;;;18.61;48.45;98717.28;10318896;28;20313;-41
2023/09/21 00:09:04;;;;;;;4.17;2.30;;;;;;;18.62;48.24;98743.28;10324398;28;20210;-41
2023/09/21 00:14:06;;;;;;;3.83;2.80;;;;;;;19.81;46.63;98679.31;10332091;28;20233;-40
2023/09/21 00:19:09;;;;;;;3.95;2.35;;;;;;;18.50;48.23;98784.09;10331817;28;20593;-41
2023/09/21 00:24:12;;;;;;;3.30;2.55;;;;;;;18.86;47.64;98764.50;10331906;28;20253;-40
2023/09/21 00:29:15;;;;;;;4.45;2.63;;;;;;;17.73;50.02;98799.72;10327625;28;20301;-42
2023/09/21 00:34:17;;;;;;;3.30;2.42;;;;;;;18.09;49.38;98760.25;10329989;28;20312;-41
2023/09/21 00:39:19;;;;;;;3.97;2.60;;;;;;;17.40;51.10;98744.72;10334474;28;20665;-43
2023/09/21 00:44:22;;;;;;;3.37;2.63;;;;;;;18.79;48.34;98676.16;10328410;28;20248;-40
2023/09/21 00:49:24;;;;;;;3.53;2.80;;;;;;;18.95;47.56;98765.69;10332174;28;20358;-41
2023/09/21 00:54:26;;;;;;;3.37;2.60;;;;;;;19.53;47.01;98733.00;10326605;28;20260;-40
2023/09/21 00:59:29;;;;;;;3.08;2.30;;;;;;;18.21;49.59;98768.19;10335016;28;20304;-39
2023/09/21 01:04:31;;;;;;;4.05;2.33;;;;;;;18.50;48.96;98753.50;10329080;28;20328;-45
2023/09/21 01:09:34;;;;;;;5.28;2.78;;;;;;;18.17;48.94;98807.69;10335765;28;20245;-42
2023/09/21 01:14:37;;;;;;;4.95;2.80;;;;;;;17.89;49.73;98795.28;10331810;28;20234;-40
2023/09/21 01:19:39;;;;;;;4.93;2.80;;;;;;;18.96;48.09;98697.66;10335386;28;20308;-41
2023/09/21 01:24:41;;;;;;;3.65;2.55;;;;;;;19.12;47.52;98711.25;10335619;28;20237;-42
2023/09/21 01:29:44;;;;;;;4.22;2.92;;;;;;;18.87;47.63;98748.00;10332112;28;20212;-39
2023/09/21 01:34:47;;;;;;;3.10;2.70;;;;;;;17.91;49.38;98806.66;10336153;28;20240;-41
2023/09/21 01:39:49;;;;;;;3.50;2.58;;;;;;;18.74;48.39;98726.78;10329882;28;20238;-40
2023/09/21 01:44:51;;;;;;;3.00;2.50;;;;;;;19.71;46.65;98699.13;10327682;28;20739;-40
2023/09/21 01:49:53;;;;;;;5.07;2.97;;;;;;;19.38;46.90;98756.34;10324962;28;20229;-40
2023/09/21 01:54:54;;;;;;;3.25;2.88;;;;;;;19.09;47.94;98753.25;10327011;28;20678;-39
2023/09/21 01:59:56;;;;;;;6.22;2.70;;;;;;;17.86;49.23;98817.44;10331671;28;20259;-41
2023/09/21 02:04:58;;;;;;;2.97;2.63;;;;;;;18.14;49.37;98761.38;10335575;28;20311;-40
2023/09/21 02:10:01;;;;;;;4.38;3.35;;;;;;;17.11;51.61;98758.47;10329192;28;20230;-39
2023/09/21 02:15:06;;;;;;;5.55;2.67;;;;;;;18.17;49.73;98694.00;10332135;28;20225;-39
2023/09/21 02:20:16;;;;;;;3.10;2.80;;;;;;;19.86;47.15;98631.28;10335787;28;20235;-38
2023/09/21 02:25:19;;;;;;;4.30;3.20;;;;;;;19.20;47.94;98735.13;10331823;28;20329;-40
2023/09/21 02:30:22;;;;;;;4.30;2.70;;;;;;;20.01;46.60;98711.88;10332054;28;20591;-40
2023/09/21 02:35:29;;;;;;;5.72;3.38;;;;;;;18.71;48.75;98776.09;10328865;28;20614;-39
2023/09/21 02:40:31;;;;;;;3.10;2.80;;;;;;;20.22;46.71;98635.81;10331906;28;20652;-41
2023/09/21 02:45:35;;;;;;;5.57;2.90;;;;;;;19.85;46.96;98681.19;10330451;28;20232;-41
2023/09/21 02:50:36;;;;;;;3.03;2.50;;;;;;;19.59;48.52;98645.16;10337406;28;20237;-39
2023/09/21 02:55:39;;;;;;;2.95;2.60;;;;;;;19.29;47.97;98727.28;10336612;28;20232;-41
2023/09/21 03:00:43;;;;;;;5.50;3.33;;;;;;;18.07;50.11;98748.88;10335950;28;20849;-41
2023/09/21 03:05:47;;;;;;;3.78;2.95;;;;;;;19.97;47.99;98636.69;10333795;28;20234;-41
2023/09/21 03:10:53;;;;;;;3.55;2.90;;;;;;;19.94;48.07;98651.63;10333235;28;20800;-41
2023/09/21 03:15:59;;;;;;;3.92;3.08;;;;;;;19.02;50.36;98620.66;10334128;28;20233;-40
2023/09/21 03:21:14;;;;;;;5.65;2.90;;;;;;;19.91;48.42;98614.16;10336040;28;20271;-41
2023/09/21 03:26:18;;;;;;;4.88;3.45;;;;;;;19.83;48.85;98650.81;10336471;28;20633;-39
2023/09/21 03:31:21;;;;;;;4.82;3.33;;;;;;;19.52;49.42;98625.59;10336386;28;20230;-41
2023/09/21 03:36:23;;;;;;;4.25;3.00;;;;;;;18.63;50.15;98725.94;10331123;28;20323;-40
2023/09/21 03:41:26;;;;;;;3.03;2.60;;;;;;;19.53;49.58;98624.50;10332881;28;20237;-41
2023/09/21 03:46:29;;;;;;;3.67;2.83;;;;;;;18.77;50.91;98661.25;10333048;28;20229;-39
2023/09/21 03:51:31;;;;;;;7.30;3.63;;;;;;;18.53;50.74;98645.44;10336778;28;20229;-40
2023/09/21 03:56:36;;;;;;;4.77;3.00;;;;;;;18.65;50.72;98639.78;10340869;28;20233;-41
2023/09/21 04:01:38;;;;;;;5.30;3.43;;;;;;;17.69;52.72;98649.81;10338838;28;20613;-40
2023/09/21 04:06:39;;;;;;;4.82;3.08;;;;;;;16.83;54.18;98658.69;10340909;28;20238;-41
2023/09/21 04:11:41;;;;;;;3.10;2.40;;;;;;;17.12;53.61;98637.66;10338235;28;20631;-40
2023/09/21 04:16:43;;;;;;;4.87;2.83;;;;;;;17.89;52.55;98565.25;10339137;28;20241;-36
2023/09/21 04:21:46;;;;;;;8.10;3.40;;;;;;;18.15;51.18;98619.50;10341037;28;20261;-39
2023/09/21 04:26:48;;;;;;;3.93;2.80;;;;;;;17.98;51.87;98611.56;10339072;28;20237;-39
2023/09/21 04:31:49;;;;;;;4.03;3.00;;;;;;;19.05;50.14;98556.16;10339859;28;20273;-40
2023/09/21 04:36:51;;;;;;;3.47;3.00;;;;;;;18.23;51.65;98632.56;10339294;28;20233;-40
2023/09/21 04:41:53;;;;;;;4.73;3.13;;;;;;;18.20;52.45;98577.06;10335893;28;20237;-41
2023/09/21 04:46:55;;;;;;;3.77;3.07;;;;;;;18.65;51.25;98556.63;10334949;28;20225;-40
2023/09/21 04:51:58;;;;;;;4.80;3.30;;;;;;;19.13;50.69;98575.41;10333205;28;20236;-38
2023/09/21 04:57:00;;;;;;;5.23;3.33;;;;;;;18.76;50.65;98619.78;10334133;28;20233;-41
2023/09/21 05:05:18;;;;;;;3.43;3.00;;;;;;;17.80;53.06;98564.94;10505178;27;20310;-75
2023/09/21 05:10:19;;;;;;;3.95;2.90;;;;;;;16.11;57.99;98582.19;10431183;28;20240;-73
2023/09/21 05:15:22;;;;;;;3.55;2.97;;;;;;;17.88;53.56;98580.69;10430057;28;20242;-74
2023/09/21 05:20:24;;;;;;;3.23;2.80;;;;;;;18.88;51.18;98530.09;10428267;28;20231;-73
2023/09/21 05:25:25;;;;;;;3.10;2.67;;;;;;;17.87;52.54;98627.75;10427624;28;20251;-73
2023/09/21 05:30:29;;;;;;;4.32;2.72;;;;;;;17.31;54.10;98675.97;10428475;28;20231;-73
2023/09/21 05:35:31;;;;;;;6.33;4.30;;;;;;;16.15;57.66;98645.41;10432009;28;20314;-74
2023/09/21 05:40:34;;;;;;;4.17;3.70;;;;;;;18.21;52.59;98553.50;10436425;28;20289;-74
2023/09/21 05:45:36;;;;;;;6.65;4.22;;;;;;;18.56;51.89;98577.19;10431103;28;20777;-73
2023/09/21 05:50:41;;;;;;;3.72;3.10;;;;;;;18.10;53.24;98590.50;10429815;28;20231;-73
2023/09/21 05:55:44;;;;;;;3.15;2.85;;;;;;;17.25;53.82;98675.09;10429436;28;20236;-73
2023/09/21 06:00:45;;;;;;;2.78;2.50;;;;;;;16.59;55.82;98658.97;10426957;28;20232;-74
2023/09/21 06:05:47;;;;;;;3.47;3.05;;;;;;;15.63;57.75;98708.56;10429415;28;20240;-73
2023/09/21 06:10:49;;;;;;;4.40;3.00;;;;;;;14.56;62.19;98627.31;10432354;28;20283;-73
2023/09/21 06:15:51;;;;;;;4.90;3.17;;;;;;;14.77;61.35;98613.22;10410435;28;20242;-72
2023/09/21 06:20:56;;;;;;;4.27;3.53;;;;;;;15.13;60.05;98604.97;10403019;28;20229;-73
2023/09/21 06:25:58;;;;;;;6.07;3.53;;;;;;;16.03;58.53;98530.31;10404660;28;20351;-73
2023/09/21 06:31:04;;;;;;;3.97;3.37;;;;;;;15.84;57.93;98634.16;10405413;28;20225;-73
2023/09/21 06:36:14;;;;;;;4.03;3.37;;;;;;;16.25;56.60;98595.06;10405872;28;20872;-72
2023/09/21 06:41:16;;;;;;;5.57;3.10;;;;;;;15.76;57.28;98626.50;10396450;28;20245;-74
2023/09/21 06:46:18;;;;;;;3.70;2.63;;;;;;;16.11;55.89;98599.22;10398707;28;20236;-73
2023/09/21 06:51:20;;;;;;;4.07;2.87;;;;;;;15.71;57.10;98594.88;10403170;28;20235;-73
2023/09/21 06:56:23;;;;;;;4.73;3.27;;;;;;;16.59;55.70;98508.53;10400493;28;20220;-73
2023/09/21 07:01:28;;;;;;;3.47;3.10;;;;;;;18.68;51.39;98533.59;10400926;28;20242;-73
2023/09/21 07:06:30;;;;;;;6.87;2.70;;;;;;;19.11;50.06;98564.00;10396854;28;20287;-73
2023/09/21 07:11:33;;;;;;;5.63;2.80;;;;;;;17.77;52.84;98662.84;10402504;28;20243;-73
2023/09/21 07:16:35;;;;;;;6.07;3.00;;;;;;;18.04;53.42;98624.88;10397761;28;20747;-73
2023/09/21 07:21:37;;;;;;;4.85;3.03;;;;;;;18.51;53.18;98633.22;10395468;28;20235;-72
2023/09/21 07:26:39;;;;;;;3.78;3.03;;;;;;;19.25;51.62;98566.19;10397725;28;20220;-73
2023/09/21 07:31:40;;;;;;;5.28;2.72;;;;;;;18.82;52.32;98582.66;10426240;28;20736;-73
2023/09/21 07:36:46;;;;;;;5.80;3.10;;;;;;;19.11;51.36;98585.69;10443052;28;20235;-73
2023/09/21 07:41:49;;;;;;;4.70;3.08;;;;;;;19.22;52.29;98569.47;10440380;28;20232;-74
2023/09/21 07:46:56;;;;;;;3.10;2.70;;;;;;;20.02;50.71;98574.22;10440837;28;20246;-74
2023/09/21 07:51:59;;;;;;;3.75;2.75;;;;;;;17.49;56.18;98647.72;10438865;28;20224;-72
2023/09/21 07:57:04;;;;;;;9.35;3.10;;;;;;;16.90;57.79;98627.69;10439384;28;20238;-74
2023/09/21 08:02:06;;;;;;;4.10;2.90;;;;;;;17.99;55.50;98570.72;10440393;28;20316;-74
2023/09/21 08:07:07;;;;;;;3.25;2.85;;;;;;;18.00;56.08;98528.22;10441759;28;20324;-72
2023/09/21 08:12:09;;;;;;;3.33;2.92;;;;;;;18.31;54.46;98555.47;10439500;28;20228;-73
2023/09/21 08:17:13;;;;;;;4.53;2.70;;;;;;;18.13;54.46;98602.72;10439070;28;20236;-74
2023/09/21 08:22:15;;;;;;;3.90;2.83;;;;;;;18.22;54.04;98564.06;10442694;28;20770;-73
2023/09/21 08:27:18;;;;;;;4.40;3.15;;;;;;;18.76;52.95;98537.66;10441868;28;20231;-73
2023/09/21 08:32:19;;;;;;;4.75;3.30;;;;;;;18.48;53.42;98568.78;10441284;28;20274;-76
2023/09/21 08:37:21;;;;;;;4.60;2.97;;;;;;;19.02;51.98;98562.94;10439675;28;20803;-76
2023/09/21 08:42:25;;;;;;;4.75;3.00;;;;;;;19.46;51.09;98529.81;10441185;28;20231;-75
2023/09/21 08:47:28;;;;;;;3.40;2.75;;;;;;;19.46;51.46;98527.09;10441015;28;20950;-77
2023/09/21 08:52:39;;;;;;;3.70;2.53;;;;;;;19.87;50.77;98570.47;10438144;28;20242;-76
2023/09/21 08:57:41;;;;;;;4.78;3.00;;;;;;;18.72;53.16;98588.88;10441065;28;20228;-79
2023/09/21 09:02:45;;;;;;;2.70;2.47;;;;;;;20.04;50.93;98504.16;10443293;28;20307;-75
2023/09/21 09:07:47;;;;;;;3.00;2.70;;;;;;;19.91;50.22;98533.53;10440545;28;20262;-78
2023/09/21 09:13:03;;;;;;;3.95;2.78;;;;;;;20.18;49.46;98532.38;10441744;28;20224;-78
2023/09/21 09:18:06;;;;;;;3.80;2.35;;;;;;;20.23;49.50;98556.78;10439473;28;20439;-76
2023/09/21 09:23:10;;;;;;;5.80;2.50;;;;;;;19.04;51.85;98628.53;10441873;28;20236;-76
2023/09/21 09:28:12;;;;;;;4.18;2.30;;;;;;;20.76;48.93;98514.63;10445150;28;20239;-77
2023/09/21 09:33:15;;;;;;;3.63;2.80;;;;;;;20.61;49.31;98516.34;10441429;28;20239;-77
2023/09/21 09:38:17;;;;;;;3.08;2.80;;;;;;;21.15;48.70;98473.81;10440499;28;20232;-77
2023/09/21 09:43:21;;;;;;;4.28;2.55;;;;;;;20.89;49.22;98503.16;10437750;28;20224;-75
2023/09/21 09:48:26;;;;;;;3.20;2.60;;;;;;;21.30;48.52;98467.41;10440026;28;20227;-79
2023/09/21 09:53:28;;;;;;;3.45;2.40;;;;;;;20.61;50.11;98502.75;10444440;28;21164;-78
2023/09/21 09:58:32;;;;;;;2.83;2.50;;;;;;;20.16;50.71;98548.09;10444818;28;20222;-76
2023/09/21 10:03:37;;;;;;;2.90;2.40;;;;;;;20.50;49.91;98476.78;10442245;28;20236;-77
2023/09/21 10:08:39;;;;;;;3.38;2.70;;;;;;;20.52;49.47;98518.06;10445106;28;20679;-75
2023/09/21 10:13:53;;;;;;;2.85;2.38;;;;;;;20.46;48.91;98527.31;10440536;28;20314;-75
2023/09/21 10:18:57;;;;;;;3.80;2.70;;;;;;;20.26;49.23;98547.25;10440163;28;20514;-76
2023/09/21 10:24:03;;;;;;;4.82;2.42;;;;;;;20.00;49.75;98512.03;10440340;28;20319;-76
2023/09/21 10:29:07;;;;;;;3.85;2.45;;;;;;;21.18;48.24;98439.78;10444904;28;20278;-75
2023/09/21 10:34:23;;;;;;;3.35;2.90;;;;;;;21.27;47.80;98489.75;10445156;28;20239;-78
2023/09/21 10:39:30;;;;;;;4.78;2.65;;;;;;;20.05;49.65;98533.75;10445113;28;20235;-76
2023/09/21 10:44:55;;;;;;;4.57;2.70;;;;;;;20.55;48.79;98512.06;10446237;28;20471;-76
2023/09/21 10:50:06;;;;;;;3.20;2.45;;;;;;;21.45;48.13;98463.75;10444859;28;20618;-78
2023/09/21 10:55:11;;;;;;;3.47;2.35;;;;;;;21.75;47.32;98437.28;10443662;28;20236;-76
2023/09/21 11:06:17;;;;;;;5.60;2.38;;;;;;;20.36;51.40;98364.41;10403681;28;21417;-75
2023/09/21 11:11:19;;;;;;;4.32;2.42;;;;;;;19.78;51.72;98359.63;10319667;28;20226;-74
2023/09/21 11:16:21;;;;;;;4.07;2.13;;;;;;;21.13;49.29;98340.03;10331447;28;20228;-75
2023/09/21 11:21:23;;;;;;;3.45;2.40;;;;;;;20.48;50.62;98364.84;10344504;28;20833;-76
2023/09/21 11:26:27;;;;;;;4.18;2.10;;;;;;;20.39;49.88;98348.34;10346226;28;20257;-75
2023/09/21 11:31:31;;;;;;;3.97;2.20;;;;;;;20.56;49.25;98358.78;10344001;28;20269;-76
2023/09/21 11:36:36;;;;;;;3.47;1.70;;;;;;;21.04;48.56;98331.69;10343134;28;20264;-76
2023/09/21 11:41:39;;;;;;;2.78;2.20;;;;;;;21.42;48.30;98288.28;10341401;28;20230;-77
2023/09/21 11:46:41;;;;;;;4.75;2.72;;;;;;;21.03;48.65;98335.50;10341138;28;20233;-74
2023/09/21 11:51:47;;;;;;;4.15;1.92;;;;;;;21.10;48.83;98301.72;10342849;28;20237;-76
2023/09/21 11:56:48;;;;;;;2.13;1.73;;;;;;;21.42;47.93;98285.56;10344513;28;20232;-76
2023/09/21 12:01:51;;;;;;;2.45;2.13;;;;;;;21.86;50.47;98258.25;10345620;28;20248;-78
2023/09/21 12:06:53;;;;;;;5.00;2.33;;;;;;;21.92;51.47;98246.97;10317634;28;20365;-76
2023/09/21 12:11:56;;;;;;;3.25;2.33;;;;;;;21.63;51.99;98251.78;10346178;28;20233;-75
2023/09/21 12:17:04;;;;;;;3.95;2.20;;;;;;;21.19;50.61;98275.53;10318865;28;20291;-76
2023/09/21 12:22:06;;;;;;;3.78;2.13;;;;;;;21.30;49.56;98244.34;10315021;28;20587;-76
2023/09/21 12:27:08;;;;;;;4.30;2.22;;;;;;;22.28;47.00;98219.13;10311318;28;20233;-75
2023/09/21 12:32:10;;;;;;;2.55;1.92;;;;;;;22.65;46.54;98211.94;10316115;28;21005;-77
2023/09/21 12:37:13;;;;;;;2.90;1.88;;;;;;;22.28;47.50;98210.97;10316268;28;20608;-76
2023/09/21 12:42:19;;;;;;;4.57;2.13;;;;;;;21.92;47.41;98259.78;10316273;28;20222;-75
2023/09/21 12:47:20;;;;;;;2.50;1.92;;;;;;;22.19;47.53;98244.66;10313009;28;20289;-75
2023/09/21 12:52:22;;;;;;;2.55;1.75;;;;;;;23.90;45.40;98156.22;10314538;28;20230;-76
2023/09/21 12:57:24;;;;;;;4.80;1.70;;;;;;;23.35;46.75;98195.50;10316638;28;20277;-76
2023/09/21 13:02:26;;;;;;;3.65;1.95;;;;;;;22.86;47.10;98227.91;10316442;28;20230;-76
2023/09/21 13:07:28;;;;;;;2.53;1.90;;;;;;;23.30;47.16;98198.31;10318531;28;20720;-77
2023/09/21 13:12:30;;;;;;;3.47;1.80;;;;;;;23.03;47.50;98203.50;10314700;28;20296;-76
2023/09/21 13:17:32;;;;;;;1.60;1.50;;;;;;;23.38;45.04;98178.47;10315787;28;20230;-78
2023/09/21 13:22:39;;;;;;;4.95;1.35;;;;;;;22.80;44.77;98226.38;10314317;28;20709;-78
2023/09/21 13:27:42;;;;;;;1.88;1.50;;;;;;;22.78;45.04;98218.50;10313157;28;20241;-76
2023/09/21 13:32:43;;;;;;;3.35;1.60;;;;;;;22.58;45.56;98172.56;10313050;28;20241;-76
2023/09/21 13:37:45;;;;;;;1.67;1.58;;;;;;;22.89;45.78;98168.09;10312347;28;20245;-75
2023/09/21 13:42:47;;;;;;;5.50;2.15;;;;;;;22.66;45.38;98159.03;10313362;28;20230;-76
2023/09/21 13:47:48;;;;;;;4.15;1.63;;;;;;;23.39;45.69;98106.41;10317879;28;20240;-75
2023/09/21 13:52:50;;;;;;;3.13;1.90;;;;;;;23.34;45.51;98090.97;10317171;28;20265;-75
2023/09/21 13:57:54;;;;;;;3.90;1.80;;;;;;;22.81;45.62;98097.13;10312628;28;20234;-77
2023/09/21 14:02:56;;;;;;;3.78;1.67;;;;;;;22.74;46.06;98072.19;10310886;28;20328;-72
2023/09/21 14:07:58;;;;;;;2.22;1.70;;;;;;;22.56;47.20;98069.31;10314451;28;20237;-72
2023/09/21 14:13:00;;;;;;;4.03;2.10;;;;;;;23.30;46.89;98053.69;10316816;28;20622;-72
2023/09/21 14:18:03;;;;;;;1.77;1.67;;;;;;;23.49;46.30;98034.41;10303242;28;20492;-73
2023/09/21 14:23:04;;;;;;;2.25;1.70;;;;;;;24.04;46.38;98014.88;10312439;28;20729;-73
2023/09/21 14:28:06;;;;;;;2.53;1.60;;;;;;;24.23;45.78;98025.56;10310995;28;20328;-73
2023/09/21 14:33:08;;;;;;;2.42;1.50;;;;;;;24.51;44.93;98037.03;10312137;28;20237;-73
2023/09/21 14:38:10;;;;;;;2.70;1.90;;;;;;;23.82;45.68;98089.53;10308220;28;20229;-75
2023/09/21 14:43:12;;;;;;;2.30;1.70;;;;;;;24.30;45.67;98045.03;10309304;28;20240;-74
2023/09/21 14:48:14;;;;;;;3.88;1.80;;;;;;;24.82;44.42;98032.56;10308556;28;20359;-72
2023/09/21 14:53:16;;;;;;;5.32;1.83;;;;;;;24.20;45.64;98072.66;10312001;28;20328;-73
2023/09/21 14:58:18;;;;;;;2.40;1.90;;;;;;;24.57;45.61;98043.13;10315685;28;20320;-73
2023/09/21 15:03:21;;;;;;;2.75;1.77;;;;;;;24.30;45.87;98053.22;10309508;28;20716;-73
2023/09/21 15:08:23;;;;;;;2.05;1.67;;;;;;;24.27;46.34;98021.06;10311705;28;20709;-74
2023/09/21 15:13:24;;;;;;;3.15;1.52;;;;;;;23.97;47.15;98030.91;10307017;28;20243;-74
2023/09/21 15:18:26;;;;;;;4.20;1.80;;;;;;;23.01;47.34;98054.91;10313748;28;20236;-75
2023/09/21 15:23:30;;;;;;;3.22;1.98;;;;;;;23.52;47.04;98040.03;10312964;28;20230;-74
2023/09/21 15:28:32;;;;;;;2.65;1.60;;;;;;;23.53;46.41;98016.25;10311646;28;20295;-74
2023/09/21 15:33:34;;;;;;;4.72;1.80;;;;;;;23.28;46.68;98032.19;10312302;28;20728;-75
2023/09/21 15:38:36;;;;;;;3.75;1.70;;;;;;;23.20;46.66;98024.78;10312979;28;20336;-74
2023/09/21 15:43:37;;;;;;;3.53;1.80;;;;;;;23.14;47.39;98021.34;10311368;28;20229;-70
2023/09/21 15:48:39;;;;;;;3.50;1.80;;;;;;;23.43;47.12;97985.41;10310215;28;20240;-74
2023/09/21 15:53:42;;;;;;;1.70;1.60;;;;;;;23.02;47.94;98004.72;10318723;28;20667;-75
2023/09/21 15:58:43;;;;;;;3.15;1.75;;;;;;;23.08;48.29;97989.88;10318076;28;20212;-74
2023/09/21 16:03:45;;;;;;;5.97;1.73;;;;;;;24.08;46.41;97930.38;10315875;28;20237;-75
2023/09/21 16:08:47;;;;;;;1.85;1.50;;;;;;;23.62;46.30;97981.66;10318614;28;20232;-75
2023/09/21 16:13:49;;;;;;;4.45;1.88;;;;;;;23.23;46.43;97969.59;10318118;28;20222;-75
2023/09/21 16:18:54;;;;;;;3.95;1.25;;;;;;;22.78;47.49;97984.03;10315850;28;20667;-76
2023/09/21 16:23:56;;;;;;;1.85;1.40;;;;;;;23.50;46.88;97929.53;10313098;28;20242;-74
2023/09/21 16:28:58;;;;;;;1.55;1.45;;;;;;;23.31;46.15;97946.16;10314567;28;20653;-76
2023/09/21 16:34:00;;;;;;;1.50;1.40;;;;;;;22.74;47.32;97960.41;10309301;28;20242;-74
2023/09/21 16:39:03;;;;;;;1.60;1.50;;;;;;;22.77;46.47;97963.31;10301922;28;20240;-73
2023/09/21 16:44:05;;;;;;;2.92;1.63;;;;;;;22.47;46.84;97957.47;10310793;28;20630;-74
2023/09/21 16:49:06;;;;;;;1.77;1.30;;;;;;;22.60;46.26;97938.66;10313606;28;20731;-74
2023/09/21 16:54:08;;;;;;;2.55;1.25;;;;;;;22.75;45.30;97968.28;10313750;28;20674;-75
2023/09/21 16:59:12;;;;;;;2.25;1.45;;;;;;;22.75;44.72;97948.41;10313381;28;20457;-75
2023/09/21 17:04:14;;;;;;;2.65;1.20;;;;;;;21.73;45.57;97999.31;10311822;28;20246;-75
2023/09/21 17:09:16;;;;;;;1.80;1.20;;;;;;;21.82;45.36;97944.16;10313904;28;20260;-74
2023/09/21 17:14:18;;;;;;;2.38;1.00;;;;;;;22.18;44.71;97965.22;10312795;28;20811;-74
2023/09/21 17:19:19;;;;;;;1.13;1.02;;;;;;;22.48;44.57;97929.09;10314027;28;20687;-74
2023/09/21 17:24:21;;;;;;;2.75;1.23;;;;;;;21.42;45.51;97994.47;10316882;28;20320;-75
2023/09/21 17:29:23;;;;;;;1.30;1.20;;;;;;;21.77;46.51;97939.63;10313152;28;20435;-73
2023/09/21 17:34:25;;;;;;;4.68;1.52;;;;;;;18.29;54.92;98011.50;10317215;28;20226;-73
2023/09/21 17:39:27;;;;;;;3.95;1.40;;;;;;;16.94;59.21;98010.13;10316228;28;20237;-76
2023/09/21 17:44:30;;;;;;;2.03;1.40;;;;;;;16.09;62.39;98075.19;10316177;28;20273;-78
2023/09/21 17:49:32;;;;;;;4.45;2.08;;;;;;;15.78;62.90;98122.78;10317822;28;20321;-77
2023/09/21 17:54:34;;;;;;;2.38;1.60;;;;;;;17.25;61.25;98158.00;10313731;28;20238;-78
2023/09/21 17:59:36;;;;;;;10.85;1.80;;;;;;;15.98;63.24;98149.06;10311971;28;20319;-74
2023/09/21 18:04:38;;;;;;;1.80;1.50;;;;;;;15.78;62.95;98128.97;10313543;28;20792;-77
2023/09/21 18:09:40;;;;;;;2.95;1.40;;;;;;;15.83;63.03;98112.00;10317612;28;20340;-76
2023/09/21 18:14:43;;;;;;;2.60;1.63;;;;;;;16.35;61.89;98094.25;10317955;28;20242;-76
2023/09/21 18:19:45;;;;;;;2.23;1.70;;;;;;;17.63;58.49;98156.69;10314699;28;20326;-73
2023/09/21 18:24:47;;;;;;;1.90;1.77;;;;;;;18.03;57.13;98230.00;10311970;28;20240;-73
2023/09/21 18:29:48;;;;;;;2.13;1.70;;;;;;;17.74;57.43;98279.22;10311036;28;20741;-74
2023/09/21 18:34:50;;;;;;;1.60;1.50;;;;;;;18.01;56.92;98248.41;10305422;28;20226;-76
2023/09/21 18:39:52;;;;;;;2.03;1.80;;;;;;;18.22;56.78;98281.66;10312964;28;20229;-74
2023/09/21 18:44:54;;;;;;;1.35;1.25;;;;;;;17.53;58.12;98348.66;10311418;28;20324;-75
2023/09/21 18:49:55;;;;;;;3.20;1.30;;;;;;;17.26;59.97;98321.78;10309789;28;20237;-72
2023/09/21 18:54:57;;;;;;;1.95;1.52;;;;;;;17.24;58.98;98348.28;10311638;28;20237;-73
2023/09/21 18:59:59;;;;;;;4.47;1.50;;;;;;;17.05;59.81;98369.53;10310674;28;20240;-75
2023/09/21 19:05:01;;;;;;;2.05;1.20;;;;;;;16.76;61.16;98334.75;10308309;28;20373;-75
2023/09/21 19:10:03;;;;;;;3.53;2.03;;;;;;;16.81;61.24;98340.19;10309127;28;20225;-75
2023/09/21 19:15:06;;;;;;;3.28;1.60;;;;;;;16.40;61.46;98380.41;10309658;28;20237;-75
2023/09/21 19:20:10;;;;;;;1.83;1.37;;;;;;;16.68;61.02;98362.25;10308986;28;20237;-76
2023/09/21 19:25:12;;;;;;;2.63;1.90;;;;;;;16.08;62.55;98381.16;10314831;28;20513;-73
2023/09/21 19:30:14;;;;;;;2.40;1.40;;;;;;;16.81;61.19;98313.97;10313557;28;20230;-76
2023/09/21 19:35:16;;;;;;;1.83;1.50;;;;;;;17.54;59.27;98337.59;10314996;28;20581;-74
2023/09/21 19:40:18;;;;;;;2.05;1.30;;;;;;;17.38;59.38;98362.94;10320601;28;20241;-74
2023/09/21 19:45:20;;;;;;;1.60;1.50;;;;;;;17.44;59.69;98337.53;10314031;28;20234;-75
2023/09/21 19:50:22;;;;;;;2.90;1.58;;;;;;;17.07;59.82;98381.69;10318728;28;21411;-76
2023/09/21 19:55:25;;;;;;;1.60;1.50;;;;;;;16.74;60.75;98390.94;10317097;28;20237;-75
2023/09/21 20:00:27;;;;;;;1.83;1.70;;;;;;;17.14;59.41;98397.69;10317081;28;20815;-77
2023/09/21 20:05:28;;;;;;;1.70;1.60;;;;;;;17.15;59.90;98353.38;10316137;28;20250;-74
2023/09/21 20:10:30;;;;;;;2.30;1.40;;;;;;;17.59;59.20;98317.84;10317408;28;20328;-74
2023/09/21 20:15:33;;;;;;;2.17;1.77;;;;;;;16.99;59.81;98379.50;10315732;28;20242;-76
2023/09/21 20:20:36;;;;;;;1.40;1.30;;;;;;;17.38;58.68;98378.31;10312395;28;20943;-76
2023/09/21 20:25:39;;;;;;;1.60;1.50;;;;;;;17.09;59.68;98362.50;10314103;28;20968;-75
2023/09/21 20:30:41;;;;;;;2.17;1.40;;;;;;;17.84;58.63;98273.03;10309877;28;20253;-75
2023/09/21 20:35:42;;;;;;;4.17;1.53;;;;;;;17.17;59.75;98338.53;10311539;28;20708;-76
2023/09/21 20:40:44;;;;;;;1.53;1.40;;;;;;;17.41;58.91;98367.00;10308066;28;20361;-75
2023/09/21 20:45:46;;;;;;;1.53;1.10;;;;;;;16.61;60.32;98425.38;10312368;28;20683;-74
2023/09/21 20:50:48;;;;;;;1.80;1.60;;;;;;;16.60;59.03;98509.34;10313961;28;20328;-75
2023/09/21 20:55:51;;;;;;;1.53;1.30;;;;;;;17.52;58.16;98422.75;10308922;28;20250;-75
2023/09/21 21:00:52;;;;;;;1.50;1.40;;;;;;;16.65;58.84;98555.34;10313532;28;20402;-74
2023/09/21 21:05:54;;;;;;;1.20;1.10;;;;;;;17.33;58.08;98477.28;10313250;28;20327;-75
2023/09/21 21:10:56;;;;;;;1.30;1.20;;;;;;;16.58;59.40;98543.91;10310133;28;20743;-76
2023/09/21 21:15:57;;;;;;;1.23;1.13;;;;;;;18.07;57.13;98420.53;10314256;28;20244;-73
2023/09/21 21:20:59;;;;;;;1.55;1.45;;;;;;;18.34;56.03;98433.06;10309239;28;20252;-73
2023/09/21 21:26:01;;;;;;;1.40;1.40;;;;;;;18.06;56.86;98427.81;10313877;28;20353;-74
2023/09/21 21:31:03;;;;;;;1.33;1.23;;;;;;;17.38;57.93;98472.97;10313504;28;20617;-74
2023/09/21 21:36:04;;;;;;;1.77;1.50;;;;;;;17.00;58.67;98467.59;10313358;28;20263;-76
2023/09/21 21:41:06;;;;;;;3.88;1.60;;;;;;;17.76;57.39;98427.75;10311434;28;20269;-75
2023/09/21 21:46:09;;;;;;;1.42;1.33;;;;;;;17.10;58.76;98485.75;10310575;28;20345;-75
2023/09/21 21:51:11;;;;;;;1.00;1.00;;;;;;;17.62;57.92;98433.63;10309372;28;20234;-75
2023/09/21 21:56:13;;;;;;;2.50;1.27;;;;;;;17.26;59.04;98456.94;10307598;28;20237;-74
2023/09/21 22:01:16;;;;;;;1.83;1.73;;;;;;;16.99;58.72;98530.81;10311340;28;20257;-76
2023/09/21 22:06:18;;;;;;;1.67;1.27;;;;;;;17.85;57.62;98442.38;10310696;28;20233;-75
2023/09/21 22:11:19;;;;;;;1.70;1.60;;;;;;;17.63;57.90;98492.09;10312716;28;20249;-75
2023/09/21 22:16:22;;;;;;;2.00;1.57;;;;;;;17.23;58.39;98511.53;10313693;28;20874;-75
2023/09/21 22:21:24;;;;;;;2.70;1.90;;;;;;;17.12;59.66;98465.53;10314114;28;20236;-75
2023/09/21 22:26:26;;;;;;;3.33;1.57;;;;;;;17.96;57.49;98478.41;10309429;28;20564;-74
2023/09/21 22:31:27;;;;;;;3.47;1.83;;;;;;;16.95;59.58;98546.72;10310272;28;20729;-77
2023/09/21 22:36:29;;;;;;;2.00;1.50;;;;;;;16.71;60.20;98540.00;10313092;28;20629;-74
2023/09/21 22:41:31;;;;;;;1.70;1.60;;;;;;;16.66;59.89;98537.25;10309155;28;20246;-75
2023/09/21 22:46:33;;;;;;;1.90;1.60;;;;;;;17.65;58.42;98476.41;10309437;28;20238;-75
2023/09/21 22:51:35;;;;;;;1.50;1.40;;;;;;;17.13;59.49;98515.78;10310433;28;20238;-74
2023/09/21 22:56:37;;;;;;;1.50;1.40;;;;;;;17.44;58.08;98526.81;10309238;28;20269;-75
2023/09/21 23:01:39;;;;;;;2.43;1.57;;;;;;;17.03;59.61;98504.91;10309220;28;20246;-75
2023/09/21 23:06:42;;;;;;;3.03;1.90;;;;;;;17.02;58.42;98557.31;10305339;28;20315;-77
2023/09/21 23:11:44;;;;;;;3.53;1.30;;;;;;;16.37;60.41;98534.78;10308215;28;20269;-75
2023/09/21 23:16:47;;;;;;;1.83;1.73;;;;;;;15.59;62.71;98507.88;10310772;28;20226;-76
2023/09/21 23:21:50;;;;;;;4.10;1.50;;;;;;;14.41;64.48;98584.81;10311405;28;20324;-76
2023/09/21 23:26:53;;;;;;;1.40;1.30;;;;;;;16.58;59.44;98498.81;10313638;28;20240;-74
2023/09/21 23:31:56;;;;;;;2.73;1.57;;;;;;;15.27;61.90;98555.09;10317300;28;20257;-74
2023/09/21 23:36:57;;;;;;;1.80;1.70;;;;;;;13.92;63.57;98689.13;10313660;28;20245;-75